Time;durP1;ratioP1;P1;durP2;ratioP2;P2;SDS_P1;SDS_P2;PMS_P1;PMS_P2;Temp;Humidity;BMP_temperature;BMP_pressure;BME280_temperature;BME280_humidity;BME280_pressure;Samples;Min_cycle;Max_cycle;Signal;HPM_P1;HPM_P2
2022/07/26 00:02:07;;;;;;;15.60;12.77;;;;;;;25.75;52.13;99060.94;5074424;28;20024;-79
2022/07/26 00:04:33;;;;;;;16.45;13.82;;;;;;;25.77;52.07;99069.88;5074527;28;20578;-79
2022/07/26 00:06:58;;;;;;;13.48;11.93;;;;;;;25.79;52.07;99067.38;5074442;28;20410;-79
2022/07/26 00:09:24;;;;;;;17.35;12.70;;;;;;;25.81;52.24;99064.06;5091782;27;20024;-78
2022/07/26 00:11:50;;;;;;;17.40;12.90;;;;;;;25.68;52.77;99072.56;5077207;27;20076;-79
2022/07/26 00:14:15;;;;;;;18.70;13.45;;;;;;;25.70;52.15;99064.34;5094392;28;20405;-78
2022/07/26 00:16:41;;;;;;;17.63;13.40;;;;;;;25.53;53.13;99063.56;5112731;28;20047;-79
2022/07/26 00:19:06;;;;;;;13.68;12.30;;;;;;;25.58;52.44;99066.69;5093104;28;20034;-79
2022/07/26 00:21:38;;;;;;;16.05;14.00;;;;;;;25.72;52.58;99068.38;5094329;28;20030;-78
2022/07/26 00:24:05;;;;;;;14.57;13.10;;;;;;;25.35;54.11;99065.59;5094063;28;20019;-78
2022/07/26 00:26:31;;;;;;;24.13;14.65;;;;;;;25.47;53.05;99071.88;5106441;28;20065;-78
2022/07/26 00:28:57;;;;;;;16.60;13.43;;;;;;;25.48;53.04;99070.59;5092017;28;20077;-78
2022/07/26 00:31:23;;;;;;;14.10;12.35;;;;;;;25.19;53.34;99059.84;5087775;28;20475;-78
2022/07/26 00:33:48;;;;;;;18.63;14.07;;;;;;;25.25;53.39;99060.94;5094051;28;20478;-78
2022/07/26 00:36:14;;;;;;;18.75;13.35;;;;;;;25.02;54.61;99042.69;5089972;28;20031;-78
2022/07/26 00:38:39;;;;;;;18.83;14.80;;;;;;;24.84;55.50;99068.03;5077026;27;20031;-78
2022/07/26 00:41:05;;;;;;;19.42;13.30;;;;;;;24.85;55.37;99066.78;5095064;28;20099;-78
2022/07/26 00:43:32;;;;;;;16.95;13.85;;;;;;;24.99;54.90;99069.31;5111691;28;20460;-78
2022/07/26 00:45:57;;;;;;;18.38;13.63;;;;;;;25.03;54.29;99075.75;5091494;28;20405;-79
2022/07/26 00:48:23;;;;;;;19.52;13.90;;;;;;;25.07;54.35;99076.47;5093871;28;20035;-78
2022/07/26 00:50:48;;;;;;;19.80;14.75;;;;;;;24.94;54.29;99066.97;5112112;28;20015;-78
2022/07/26 00:53:17;;;;;;;21.17;13.18;;;;;;;24.92;54.37;99081.72;5112020;28;20058;-78
2022/07/26 00:55:43;;;;;;;17.55;13.55;;;;;;;25.07;53.81;99076.47;5093698;28;20035;-79
2022/07/26 00:58:08;;;;;;;19.73;14.25;;;;;;;24.95;54.10;99062.88;5074464;28;20550;-79
2022/07/26 01:00:34;;;;;;;17.75;13.95;;;;;;;25.10;54.25;99071.91;5073056;28;20053;-78
2022/07/26 01:02:59;;;;;;;18.45;14.48;;;;;;;25.14;54.36;99066.13;5073956;28;20172;-79
2022/07/26 01:05:26;;;;;;;15.98;14.27;;;;;;;25.12;54.55;99072.28;5111621;28;20054;-78
2022/07/26 01:07:52;;;;;;;17.85;14.55;;;;;;;24.88;55.42;99068.75;5111867;28;20043;-78
2022/07/26 01:10:19;;;;;;;22.17;14.55;;;;;;;24.83;55.90;99064.38;5111957;28;20533;-79
2022/07/26 01:12:45;;;;;;;27.42;17.73;;;;;;;24.58;56.78;99065.69;5093388;28;20024;-78
2022/07/26 01:15:12;;;;;;;24.95;15.38;;;;;;;24.74;56.27;99069.84;5093468;28;20544;-79
2022/07/26 01:17:38;;;;;;;26.23;17.23;;;;;;;24.62;56.88;99071.34;5107060;28;20393;-79
2022/07/26 01:20:07;;;;;;;18.33;15.20;;;;;;;24.54;56.92;99068.63;5092617;28;20114;-79
2022/07/26 01:22:32;;;;;;;20.30;14.70;;;;;;;24.67;56.25;99065.09;5111730;28;20546;-79
2022/07/26 01:24:58;;;;;;;20.65;15.82;;;;;;;24.77;56.17;99060.41;5092352;28;20027;-79
2022/07/26 01:27:23;;;;;;;18.20;15.63;;;;;;;24.79;55.85;99073.03;5111162;28;20055;-78
2022/07/26 01:29:50;;;;;;;20.42;15.90;;;;;;;24.57;56.62;99061.22;5076001;28;20031;-77
2022/07/26 01:32:19;;;;;;;17.60;15.77;;;;;;;24.61;55.90;99067.66;5091247;28;20434;-79
2022/07/26 01:34:45;;;;;;;21.40;16.63;;;;;;;24.32;56.33;99059.72;5091097;28;20020;-78
2022/07/26 01:37:10;;;;;;;18.00;16.08;;;;;;;24.21;56.62;99054.19;5072900;28;20119;-79
2022/07/26 01:39:36;;;;;;;17.25;15.25;;;;;;;24.53;55.58;99055.59;5089891;28;20028;-78
2022/07/26 01:42:02;;;;;;;18.60;16.73;;;;;;;24.72;54.82;99047.41;5114503;27;20027;-79
2022/07/26 01:44:27;;;;;;;18.88;15.98;;;;;;;24.71;54.59;99048.66;5095669;28;20413;-78
2022/07/26 01:46:53;;;;;;;19.15;16.77;;;;;;;24.56;55.25;99050.22;5096873;27;20072;-78
2022/07/26 01:49:18;;;;;;;18.13;15.75;;;;;;;24.52;55.72;99053.97;5115468;28;20059;-78
2022/07/26 01:51:44;;;;;;;25.17;17.13;;;;;;;24.32;55.92;99034.00;5097220;28;20482;-79
2022/07/26 01:54:10;;;;;;;17.13;15.32;;;;;;;24.54;55.18;99047.81;5097269;28;20059;-79
2022/07/26 01:56:35;;;;;;;16.98;14.60;;;;;;;24.61;55.32;99047.66;5096933;28;20100;-79
2022/07/26 01:59:01;;;;;;;21.75;16.70;;;;;;;24.56;55.51;99064.53;5096192;28;20405;-79
2022/07/26 02:01:27;;;;;;;23.65;16.05;;;;;;;24.51;55.12;99057.25;5096394;28;20413;-79
2022/07/26 02:03:52;;;;;;;18.05;15.98;;;;;;;24.39;55.33;99056.69;5096835;28;20487;-78
2022/07/26 02:06:18;;;;;;;22.13;16.40;;;;;;;24.44;55.17;99058.22;5096818;28;20031;-79
2022/07/26 02:08:43;;;;;;;18.05;16.15;;;;;;;24.37;55.03;99050.59;5113873;28;20030;-79
2022/07/26 02:11:09;;;;;;;22.10;15.15;;;;;;;24.28;54.94;99049.59;5113181;28;20485;-79
2022/07/26 02:13:40;;;;;;;20.15;15.95;;;;;;;24.51;54.26;99057.25;5102166;28;20026;-79
2022/07/26 02:16:08;;;;;;;22.30;16.63;;;;;;;24.51;54.33;99060.94;5081380;28;20453;-79
2022/07/26 02:18:36;;;;;;;17.02;15.23;;;;;;;24.34;54.64;99056.41;5114958;28;20023;-79
2022/07/26 02:21:02;;;;;;;24.65;16.10;;;;;;;24.17;55.55;99058.38;5096605;28;20512;-79
2022/07/26 02:23:28;;;;;;;21.55;15.95;;;;;;;23.91;55.55;99033.13;5096712;28;20494;-79
2022/07/26 02:25:54;;;;;;;23.05;15.38;;;;;;;24.13;55.55;99060.50;5113371;28;20024;-79
2022/07/26 02:28:20;;;;;;;24.52;15.73;;;;;;;24.06;55.24;99052.88;5114298;27;20071;-79
2022/07/26 02:30:47;;;;;;;21.13;15.88;;;;;;;24.04;55.01;99046.81;5097201;27;20580;-77
2022/07/26 02:33:13;;;;;;;19.08;15.98;;;;;;;24.08;55.17;99047.53;5109488;27;20587;-76
2022/07/26 02:35:38;;;;;;;21.45;15.63;;;;;;;24.16;54.81;99054.72;5112164;28;20020;-75
2022/07/26 02:38:06;;;;;;;20.55;16.13;;;;;;;24.04;55.30;99047.59;5096372;28;20024;-75
2022/07/26 02:40:32;;;;;;;20.02;15.27;;;;;;;24.01;55.11;99033.34;5095988;28;20028;-75
2022/07/26 02:42:58;;;;;;;16.77;14.93;;;;;;;24.14;54.79;99051.50;5112744;27;20019;-72
2022/07/26 02:45:24;;;;;;;18.73;16.83;;;;;;;24.04;55.33;99047.59;5094032;27;20031;-73
2022/07/26 02:47:52;;;;;;;23.42;15.75;;;;;;;23.94;55.38;99045.72;5094176;28;20563;-72
2022/07/26 02:50:22;;;;;;;22.85;16.27;;;;;;;23.88;55.38;99051.13;5106900;27;20513;-76
2022/07/26 02:52:49;;;;;;;38.92;16.77;;;;;;;23.84;55.83;99045.50;5113347;28;20532;-77
2022/07/26 02:55:16;;;;;;;34.55;17.73;;;;;;;23.64;56.02;99059.72;5103424;28;20084;-76
2022/07/26 02:57:41;;;;;;;22.05;16.73;;;;;;;22.72;59.00;99064.41;5112279;28;20088;-79
2022/07/26 03:00:09;;;;;;;38.35;18.58;;;;;;;22.71;59.23;99051.38;5113979;27;20389;-77
2022/07/26 03:02:35;;;;;;;26.83;16.98;;;;;;;23.12;58.18;99061.75;5117350;27;20088;-78
2022/07/26 03:05:01;;;;;;;38.45;19.42;;;;;;;23.10;58.42;99061.41;5111838;28;20032;-77
2022/07/26 03:07:27;;;;;;;25.65;17.75;;;;;;;23.14;58.15;99061.34;5096989;28;20028;-79
2022/07/26 03:09:53;;;;;;;28.75;18.35;;;;;;;23.26;57.83;99068.47;5120834;27;20239;-80
2022/07/26 03:12:18;;;;;;;35.38;18.90;;;;;;;23.05;58.65;99070.44;5116035;27;20093;-79
2022/07/26 03:14:44;;;;;;;35.33;18.80;;;;;;;22.71;60.05;99074.19;5097836;28;20554;-80
2022/07/26 03:17:09;;;;;;;28.33;18.63;;;;;;;22.28;61.97;99066.97;5095590;28;20035;-79
2022/07/26 03:19:35;;;;;;;29.70;17.40;;;;;;;22.27;62.07;99068.22;5114174;27;20020;-79
2022/07/26 03:22:00;;;;;;;23.92;18.65;;;;;;;22.47;61.62;99082.59;5114050;28;20024;-79
2022/07/26 03:24:26;;;;;;;23.95;17.88;;;;;;;22.40;62.33;99089.19;5113462;28;20027;-79
2022/07/26 03:26:51;;;;;;;41.50;19.67;;;;;;;22.07;62.99;99077.38;5095139;28;20081;-79
2022/07/26 03:29:17;;;;;;;41.60;20.95;;;;;;;22.34;62.44;99090.88;5094087;27;20027;-80
2022/07/26 03:31:42;;;;;;;24.20;20.70;;;;;;;22.12;62.93;99098.88;5107416;28;20019;-79
2022/07/26 03:34:08;;;;;;;31.00;20.60;;;;;;;21.72;64.64;99097.25;5094905;28;20042;-80
2022/07/26 03:36:33;;;;;;;28.52;20.35;;;;;;;21.58;64.33;99083.09;5094221;28;20024;-79
2022/07/26 03:38:59;;;;;;;30.63;18.85;;;;;;;21.65;63.90;99096.44;5095246;28;20032;-79
2022/07/26 03:41:24;;;;;;;29.92;21.35;;;;;;;21.46;64.20;99090.91;5095094;28;20331;-80
2022/07/26 03:43:50;;;;;;;30.25;20.23;;;;;;;21.18;65.07;99098.44;5111548;27;20020;-80
2022/07/26 03:46:15;;;;;;;34.72;20.00;;;;;;;20.84;66.47;99093.38;5095674;28;20038;-80
2022/07/26 03:48:41;;;;;;;25.83;20.55;;;;;;;21.01;65.56;99093.69;5095147;28;20019;-80
2022/07/26 03:51:06;;;;;;;25.50;20.63;;;;;;;20.90;65.93;99093.75;5094082;28;20084;-80
2022/07/26 03:53:33;;;;;;;26.23;22.20;;;;;;;20.74;66.54;99097.03;5095357;28;20115;-79
2022/07/26 03:58:43;;;;;;;28.48;19.92;;;;;;;21.00;65.99;99106.28;5112184;27;20065;-79
2022/07/26 04:01:08;;;;;;;28.20;20.15;;;;;;;20.97;65.75;99104.25;5113004;28;20020;-80
2022/07/26 04:03:34;;;;;;;26.60;20.90;;;;;;;21.04;66.07;99101.38;5129485;27;20057;-80
2022/07/26 04:05:59;;;;;;;40.03;21.70;;;;;;;21.02;66.26;99098.16;5115140;27;20019;-79
2022/07/26 04:08:25;;;;;;;25.88;19.52;;;;;;;21.12;66.08;99094.44;5114898;27;20011;-79
2022/07/26 04:10:51;;;;;;;24.08;19.83;;;;;;;21.27;66.21;99086.59;5093165;28;20024;-80
2022/07/26 04:13:17;;;;;;;31.65;19.25;;;;;;;21.46;65.76;99090.91;5095197;27;20024;-80
2022/07/26 04:15:43;;;;;;;31.60;18.80;;;;;;;21.57;65.50;99096.53;5097683;28;20424;-79
2022/07/26 04:18:09;;;;;;;29.45;18.48;;;;;;;21.68;65.01;99089.97;5112587;28;20028;-79
2022/07/26 04:20:34;;;;;;;38.70;18.75;;;;;;;21.71;64.76;99087.06;5080938;28;20028;-80
2022/07/26 04:22:59;;;;;;;23.05;19.00;;;;;;;21.80;64.35;99085.78;5097244;27;20034;-80
2022/07/26 04:25:25;;;;;;;29.98;18.30;;;;;;;21.88;64.21;99070.25;5133155;27;20031;-80
2022/07/26 04:27:51;;;;;;;26.63;17.85;;;;;;;21.89;64.27;99080.41;5090046;28;20016;-76
2022/07/26 04:30:16;;;;;;;31.08;17.70;;;;;;;22.20;63.59;99089.00;5074029;28;20523;-77
2022/07/26 04:32:43;;;;;;;33.80;17.90;;;;;;;22.26;63.44;99084.47;5111649;27;20495;-77
2022/07/26 04:35:09;;;;;;;28.17;17.38;;;;;;;22.20;63.22;99089.00;5091965;28;20031;-77
2022/07/26 04:37:42;;;;;;;22.23;17.17;;;;;;;22.39;62.67;99089.63;5081553;27;20107;-77
2022/07/26 04:40:09;;;;;;;20.48;15.90;;;;;;;22.60;62.03;99087.78;5112378;28;20034;-76
2022/07/26 04:42:35;;;;;;;24.80;17.85;;;;;;;22.60;62.08;99090.63;5080804;28;20506;-77
2022/07/26 04:45:02;;;;;;;17.63;15.73;;;;;;;22.62;61.82;99091.00;5101407;27;20035;-78
2022/07/26 04:47:27;;;;;;;22.83;16.30;;;;;;;22.64;61.74;99091.38;5114353;27;20401;-77
2022/07/26 04:49:53;;;;;;;21.38;16.15;;;;;;;22.80;61.61;99083.00;5129470;27;20027;-77
2022/07/26 04:52:18;;;;;;;26.10;16.58;;;;;;;23.04;60.58;99087.97;5084296;28;20027;-80
2022/07/26 04:54:44;;;;;;;18.92;16.63;;;;;;;23.18;59.88;99089.81;5099540;28;20019;-75
2022/07/26 04:57:09;;;;;;;22.58;16.17;;;;;;;23.06;60.30;99088.34;5082690;28;20040;-76
2022/07/26 04:59:34;;;;;;;22.20;15.07;;;;;;;23.35;59.58;99094.44;5091694;28;20016;-76
2022/07/26 05:02:00;;;;;;;21.73;16.65;;;;;;;23.24;60.03;99091.75;5110098;28;20028;-76
2022/07/26 05:04:26;;;;;;;24.38;16.05;;;;;;;23.24;59.60;99082.38;5100496;27;20046;-77
2022/07/26 05:06:51;;;;;;;18.50;15.55;;;;;;;23.26;59.46;99088.44;5121420;27;20027;-75
2022/07/26 05:09:17;;;;;;;21.10;15.27;;;;;;;23.23;59.65;99066.50;5111017;28;20028;-76
2022/07/26 05:11:42;;;;;;;19.67;16.77;;;;;;;23.41;59.38;99077.66;5101721;28;20035;-73
2022/07/26 05:14:08;;;;;;;19.05;16.58;;;;;;;23.23;59.94;99069.34;5091389;28;20395;-76
2022/07/26 05:16:33;;;;;;;21.88;15.57;;;;;;;23.34;60.11;99072.06;5090662;28;20024;-73
2022/07/26 05:18:59;;;;;;;23.75;17.05;;;;;;;23.57;59.52;99068.41;5127133;27;20023;-73
2022/07/26 05:21:26;;;;;;;25.40;16.52;;;;;;;23.60;59.08;99070.41;5113945;28;20412;-73
2022/07/26 05:23:52;;;;;;;23.13;16.10;;;;;;;23.57;59.50;99074.13;5113769;28;20405;-71
2022/07/26 05:26:17;;;;;;;24.73;16.58;;;;;;;23.69;59.07;99073.50;5102956;28;20027;-72
2022/07/26 05:28:43;;;;;;;21.00;17.17;;;;;;;23.69;59.04;99070.66;5091063;28;20076;-73
2022/07/26 05:31:08;;;;;;;22.58;16.40;;;;;;;23.84;59.17;99074.06;5093624;28;20046;-72
2022/07/26 05:33:33;;;;;;;24.52;17.10;;;;;;;23.72;59.06;99071.00;5101264;28;20036;-73
2022/07/26 05:35:59;;;;;;;26.60;16.98;;;;;;;23.80;58.67;99069.66;5102403;28;20046;-73
2022/07/26 05:38:24;;;;;;;22.35;17.02;;;;;;;24.08;58.56;99071.19;5100541;28;20069;-73
2022/07/26 05:40:50;;;;;;;21.80;16.98;;;;;;;24.28;57.42;99063.88;5077924;28;20031;-75
2022/07/26 05:43:16;;;;;;;24.73;18.42;;;;;;;24.57;56.61;99071.84;5091470;28;20444;-74
2022/07/26 05:45:41;;;;;;;28.08;20.20;;;;;;;24.53;57.07;99075.59;5104183;28;20074;-82
2022/07/26 05:48:07;;;;;;;24.77;18.98;;;;;;;24.21;57.29;99068.47;5111005;28;20032;-75
2022/07/26 05:50:32;;;;;;;22.35;18.25;;;;;;;24.09;58.21;99063.41;5093019;28;20027;-76
2022/07/26 05:52:58;;;;;;;20.30;17.40;;;;;;;24.40;57.67;99068.94;5108916;28;20023;-75
2022/07/26 05:55:23;;;;;;;20.27;17.80;;;;;;;24.28;58.20;99067.53;5081901;28;20466;-77
2022/07/26 05:57:49;;;;;;;24.42;17.77;;;;;;;24.31;57.95;99071.56;5112459;28;20447;-73
2022/07/26 06:00:15;;;;;;;21.35;17.90;;;;;;;24.54;57.47;99070.66;5110859;28;20463;-73
2022/07/26 06:02:40;;;;;;;22.92;18.58;;;;;;;24.73;56.98;99068.25;5083378;28;20093;-73
2022/07/26 06:05:06;;;;;;;22.55;19.17;;;;;;;24.80;56.83;99076.69;5092481;28;20044;-78
2022/07/26 06:07:32;;;;;;;19.42;17.38;;;;;;;24.18;57.87;99071.41;5111076;28;20118;-74
2022/07/26 06:09:57;;;;;;;21.98;17.77;;;;;;;24.35;57.72;99066.56;5105778;28;20111;-78
2022/07/26 06:12:23;;;;;;;23.25;17.40;;;;;;;24.78;56.55;99074.28;5084919;28;20063;-73
2022/07/26 06:14:48;;;;;;;21.98;16.95;;;;;;;24.71;56.79;99059.31;5109847;28;20034;-78
2022/07/26 06:17:14;;;;;;;19.95;17.85;;;;;;;24.81;56.52;99069.72;5112982;28;20032;-77
2022/07/26 06:19:40;;;;;;;25.35;18.33;;;;;;;24.82;56.45;99059.91;5099247;28;20110;-75
2022/07/26 06:22:05;;;;;;;21.42;19.08;;;;;;;25.14;56.51;99064.03;5079752;28;20024;-73
2022/07/26 06:24:31;;;;;;;26.60;18.38;;;;;;;24.86;55.92;99065.50;5087412;28;20024;-73
2022/07/26 06:26:57;;;;;;;20.50;18.48;;;;;;;24.82;56.24;99059.91;5092164;28;20063;-72
2022/07/26 06:29:22;;;;;;;27.63;18.52;;;;;;;25.25;55.67;99043.78;5114427;27;20032;-73
2022/07/26 06:31:48;;;;;;;27.80;20.13;;;;;;;25.53;55.04;99047.19;5114487;28;20030;-73
2022/07/26 06:34:14;;;;;;;27.20;20.08;;;;;;;25.67;54.58;99042.34;5092503;28;20030;-73
2022/07/26 06:36:40;;;;;;;34.25;22.45;;;;;;;25.52;55.05;99042.72;5091100;28;20047;-74
2022/07/26 06:39:06;;;;;;;23.75;20.05;;;;;;;25.28;55.38;99034.28;5099715;27;20492;-74
2022/07/26 06:41:31;;;;;;;26.45;18.58;;;;;;;25.72;54.56;99033.22;5102093;27;20027;-74
2022/07/26 06:43:57;;;;;;;26.33;20.25;;;;;;;26.10;53.15;99041.19;5114060;28;20026;-73
2022/07/26 06:46:22;;;;;;;33.42;21.92;;;;;;;26.12;53.39;99035.78;5100527;28;20396;-73
2022/07/26 06:48:48;;;;;;;24.63;21.02;;;;;;;26.16;52.85;99039.34;5100066;28;20024;-73
2022/07/26 06:51:14;;;;;;;23.67;20.25;;;;;;;26.15;52.85;99036.94;5074139;28;20422;-73
2022/07/26 06:53:39;;;;;;;26.42;19.95;;;;;;;26.18;52.86;99033.16;5095660;28;20022;-74
2022/07/26 06:56:05;;;;;;;23.25;20.65;;;;;;;26.40;51.94;99027.63;5092793;27;20062;-73
2022/07/26 06:58:31;;;;;;;27.50;21.70;;;;;;;26.27;52.79;99038.28;5109487;28;20062;-75
2022/07/26 07:00:57;;;;;;;29.08;21.15;;;;;;;26.34;52.78;99030.25;5090838;28;20081;-74
2022/07/26 07:03:22;;;;;;;31.70;21.92;;;;;;;26.33;52.38;99031.53;5083510;28;20383;-75
2022/07/26 07:05:48;;;;;;;27.70;21.30;;;;;;;26.62;52.04;99021.25;5101745;27;20028;-73
2022/07/26 07:08:14;;;;;;;27.40;21.80;;;;;;;26.88;52.11;99029.91;5083125;27;20468;-75
2022/07/26 07:10:40;;;;;;;28.70;21.88;;;;;;;26.75;51.55;99030.69;5097980;27;20022;-75
2022/07/26 07:13:05;;;;;;;28.48;21.25;;;;;;;27.09;50.78;99033.34;5100845;27;20413;-77
2022/07/26 07:15:31;;;;;;;30.30;24.13;;;;;;;26.42;52.38;99027.97;5090459;28;20028;-76
2022/07/26 07:17:56;;;;;;;27.33;21.38;;;;;;;26.75;51.86;99036.41;5107844;28;20031;-73
2022/07/26 07:20:22;;;;;;;27.52;19.95;;;;;;;27.23;50.87;99017.75;5075006;28;20508;-74
2022/07/26 07:22:47;;;;;;;29.67;22.25;;;;;;;26.94;51.66;99028.09;5093067;28;20089;-74
2022/07/26 07:25:13;;;;;;;22.77;20.38;;;;;;;27.17;51.40;99034.75;5074657;28;20104;-74
2022/07/26 07:27:38;;;;;;;22.98;20.67;;;;;;;27.32;51.29;99027.25;5074893;28;20012;-74
2022/07/26 07:30:05;;;;;;;21.35;19.25;;;;;;;27.49;49.93;99026.31;5079424;28;20020;-75
2022/07/26 07:32:31;;;;;;;25.63;18.92;;;;;;;27.87;49.74;99031.16;5107983;28;20034;-76
2022/07/26 07:34:58;;;;;;;28.48;20.23;;;;;;;28.07;48.41;99030.06;5106943;28;20503;-78
2022/07/26 07:37:23;;;;;;;23.88;19.85;;;;;;;28.39;48.53;99030.94;5113248;28;20031;-77
2022/07/26 07:39:49;;;;;;;23.27;20.52;;;;;;;27.82;49.13;99023.16;5094558;28;20024;-76
2022/07/26 07:42:14;;;;;;;24.17;20.08;;;;;;;28.11;48.99;99027.84;5112503;28;20034;-73
2022/07/26 07:44:43;;;;;;;28.35;18.95;;;;;;;28.41;48.59;99028.38;5088403;28;20118;-76
2022/07/26 07:47:08;;;;;;;26.17;22.70;;;;;;;28.27;48.10;99015.38;5075819;28;20094;-76
2022/07/26 07:49:34;;;;;;;26.33;19.73;;;;;;;27.77;49.72;99020.84;5099012;27;20084;-74
2022/07/26 07:52:00;;;;;;;23.13;19.70;;;;;;;27.79;49.69;99022.00;5112041;27;20509;-74
2022/07/26 07:54:25;;;;;;;24.95;18.63;;;;;;;27.98;48.86;99019.25;5096613;27;20032;-75
2022/07/26 07:56:51;;;;;;;23.10;19.35;;;;;;;28.18;48.16;99013.25;5092385;28;20035;-74
2022/07/26 07:59:17;;;;;;;26.40;19.50;;;;;;;28.57;47.47;99008.06;5090570;28;20054;-75
2022/07/26 08:01:42;;;;;;;32.83;21.77;;;;;;;28.81;46.88;99006.72;5102502;27;20316;-76
2022/07/26 08:04:08;;;;;;;25.92;19.83;;;;;;;29.15;45.81;99010.72;5077942;28;20047;-74
2022/07/26 08:06:34;;;;;;;20.27;18.25;;;;;;;28.71;46.08;99003.78;5094156;27;20028;-76
2022/07/26 08:09:00;;;;;;;23.40;17.83;;;;;;;29.10;45.38;99012.13;5084861;28;20462;-73
2022/07/26 08:11:26;;;;;;;24.98;19.65;;;;;;;28.56;46.28;99002.75;5104186;28;20023;-77
2022/07/26 08:13:51;;;;;;;28.73;19.25;;;;;;;28.71;46.41;99003.00;5111773;27;20107;-76
2022/07/26 08:16:17;;;;;;;31.48;19.50;;;;;;;28.64;46.02;99000.41;5128541;27;20027;-79
2022/07/26 08:18:42;;;;;;;24.55;17.83;;;;;;;29.09;45.98;98999.03;5085163;28;20442;-76
2022/07/26 08:21:08;;;;;;;19.30;17.20;;;;;;;29.59;43.72;99000.28;5087288;28;20497;-81
2022/07/26 08:23:34;;;;;;;20.73;18.52;;;;;;;29.49;43.98;98993.69;5077546;28;20036;-83
2022/07/26 08:26:00;;;;;;;19.00;16.92;;;;;;;29.46;43.11;98995.47;5101382;28;20438;-85
2022/07/26 08:28:27;;;;;;;19.33;17.13;;;;;;;29.28;43.45;99002.75;5079978;28;20035;-83
2022/07/26 08:30:52;;;;;;;21.50;16.95;;;;;;;29.14;43.27;98994.72;5085434;28;20032;-82
2022/07/26 08:33:18;;;;;;;29.02;17.25;;;;;;;29.36;43.12;98982.28;5081273;28;20046;-77
2022/07/26 08:35:43;;;;;;;23.35;16.77;;;;;;;29.89;43.16;98974.66;5101569;27;20466;-79
2022/07/26 08:38:09;;;;;;;26.00;17.77;;;;;;;29.72;42.60;98974.19;5094552;28;20031;-73
2022/07/26 08:40:34;;;;;;;19.52;17.63;;;;;;;30.05;41.70;98974.38;5070827;28;20027;-76
2022/07/26 08:43:01;;;;;;;19.08;17.17;;;;;;;30.18;42.75;98979.94;5096713;28;20031;-76
2022/07/26 08:45:28;;;;;;;19.60;17.70;;;;;;;30.06;41.69;98981.75;5094735;28;20032;-73
2022/07/26 08:47:54;;;;;;;25.50;17.30;;;;;;;30.24;42.83;98969.38;5102847;28;20121;-73
2022/07/26 08:50:21;;;;;;;18.80;16.88;;;;;;;30.77;41.60;98981.75;5081076;28;20028;-75
2022/07/26 08:52:48;;;;;;;24.35;19.02;;;;;;;30.59;40.65;98970.22;5074994;28;20058;-77
2022/07/26 08:55:18;;;;;;;20.05;17.55;;;;;;;31.04;38.82;98974.22;5093042;28;20323;-74
2022/07/26 08:57:44;;;;;;;20.73;17.27;;;;;;;30.99;39.49;98977.81;5104382;28;20084;-74
2022/07/26 09:00:18;;;;;;;20.80;16.35;;;;;;;31.02;39.49;98978.91;5076391;28;20031;-74
2022/07/26 09:02:45;;;;;;;22.65;15.80;;;;;;;31.23;38.61;98966.28;5083465;28;20042;-75
2022/07/26 09:05:11;;;;;;;18.30;16.60;;;;;;;31.43;38.70;98973.56;5103329;27;20043;-74
2022/07/26 09:07:40;;;;;;;18.50;16.52;;;;;;;31.19;37.87;98962.75;5090147;28;20059;-78
2022/07/26 09:10:11;;;;;;;22.50;17.15;;;;;;;31.69;38.92;98960.69;5086904;28;20110;-77
2022/07/26 09:12:37;;;;;;;24.35;17.67;;;;;;;31.90;37.97;98961.66;5104706;28;20035;-78
2022/07/26 09:15:05;;;;;;;18.40;16.10;;;;;;;32.01;37.76;98955.28;5090907;28;20475;-76
2022/07/26 09:17:44;;;;;;;17.67;15.85;;;;;;;32.03;37.19;98962.16;5090898;28;20031;-75
2022/07/26 09:20:13;;;;;;;17.10;14.60;;;;;;;31.68;36.39;98953.28;5105658;28;20110;-70
2022/07/26 09:22:57;;;;;;;16.40;14.70;;;;;;;32.02;35.67;98957.69;5109142;28;20035;-74
2022/07/26 09:25:24;;;;;;;21.38;16.30;;;;;;;32.01;36.24;98953.19;5109207;28;20035;-75
2022/07/26 09:27:50;;;;;;;22.33;15.98;;;;;;;31.85;36.83;98936.31;5110258;27;20024;-76
2022/07/26 09:30:16;;;;;;;18.08;16.30;;;;;;;32.24;36.08;98939.16;5108860;28;20057;-75
2022/07/26 09:33:02;;;;;;;17.33;14.95;;;;;;;32.29;36.46;98944.22;5109158;28;20039;-75
2022/07/26 09:35:30;;;;;;;17.25;15.52;;;;;;;32.33;36.65;98941.13;5107729;28;20478;-77
2022/07/26 09:37:55;;;;;;;19.35;14.90;;;;;;;32.33;36.53;98932.47;5091166;28;20430;-77
2022/07/26 09:40:21;;;;;;;21.80;16.38;;;;;;;32.03;36.54;98924.56;5081781;28;20028;-79
2022/07/26 09:43:02;;;;;;;20.40;17.13;;;;;;;31.56;37.34;98937.81;5090758;28;20514;-79
2022/07/26 09:45:30;;;;;;;17.70;15.07;;;;;;;31.66;37.33;98939.34;5106045;28;20039;-81
2022/07/26 09:47:56;;;;;;;17.08;14.63;;;;;;;32.28;36.46;98933.13;5096870;28;20069;-81
2022/07/26 09:50:27;;;;;;;34.92;15.73;;;;;;;32.53;36.26;98928.88;5106344;28;20032;-81
2022/07/26 09:53:10;;;;;;;17.60;15.80;;;;;;;32.84;35.60;98930.41;5112166;28;20111;-81
2022/07/26 09:55:54;;;;;;;19.38;16.35;;;;;;;33.00;35.08;98928.28;5094471;28;20028;-81
2022/07/26 09:58:20;;;;;;;25.63;14.75;;;;;;;32.91;35.07;98926.34;5095923;28;20031;-80
2022/07/26 10:00:46;;;;;;;19.33;15.93;;;;;;;32.83;34.89;98914.34;5076128;28;20380;-81
2022/07/26 10:03:11;;;;;;;22.08;15.18;;;;;;;33.31;34.89;98918.97;5080504;28;20072;-80
2022/07/26 10:05:37;;;;;;;21.73;15.25;;;;;;;33.33;34.72;98909.78;5081682;28;20059;-80
2022/07/26 10:08:04;;;;;;;21.30;15.07;;;;;;;33.38;34.18;98917.75;5098513;28;20024;-80
2022/07/26 10:10:35;;;;;;;16.55;14.60;;;;;;;33.36;33.96;98911.66;5077326;28;20494;-82
2022/07/26 10:13:01;;;;;;;17.08;14.85;;;;;;;33.25;34.84;98900.72;5075792;28;20536;-81
2022/07/26 10:15:39;;;;;;;16.08;14.05;;;;;;;33.59;33.70;98897.47;5102104;28;20519;-81
2022/07/26 10:18:07;;;;;;;16.83;14.20;;;;;;;33.87;32.86;98903.56;5084833;28;20563;-81
2022/07/26 10:20:46;;;;;;;22.00;16.30;;;;;;;34.15;32.69;98905.16;5104127;28;20405;-81
2022/07/26 10:23:40;;;;;;;23.20;14.30;;;;;;;33.60;32.45;98891.16;5094419;28;20036;-80
2022/07/26 10:26:32;;;;;;;18.10;14.30;;;;;;;33.08;35.41;98883.13;5096169;28;20498;-81
2022/07/26 10:29:16;;;;;;;16.17;14.48;;;;;;;33.58;32.71;98887.19;5101556;27;20036;-81
2022/07/26 10:32:07;;;;;;;18.42;14.93;;;;;;;33.74;32.33;98883.66;5076225;28;20028;-81
2022/07/26 10:34:35;;;;;;;19.27;14.15;;;;;;;33.86;31.07;98880.88;5089340;28;20039;-82
2022/07/26 10:37:04;;;;;;;15.77;13.70;;;;;;;34.12;31.42;98875.09;5103913;27;20038;-80
2022/07/26 10:39:29;;;;;;;16.15;13.07;;;;;;;34.43;31.86;98876.38;5095052;28;20459;-81
2022/07/26 10:42:04;;;;;;;18.75;14.00;;;;;;;34.73;31.70;98872.41;5094658;28;20114;-81
2022/07/26 10:44:31;;;;;;;17.40;14.90;;;;;;;34.38;32.17;98877.16;5112959;28;20023;-80
2022/07/26 10:47:05;;;;;;;14.93;12.68;;;;;;;34.52;31.05;98866.75;5087470;28;20035;-81
2022/07/26 10:49:40;;;;;;;20.70;14.85;;;;;;;34.58;32.08;98855.94;5102036;27;20031;-81
2022/07/26 10:52:07;;;;;;;21.33;13.45;;;;;;;34.68;30.79;98876.84;5110307;28;20020;-80
2022/07/26 10:54:52;;;;;;;14.10;12.52;;;;;;;34.23;31.15;98859.88;5082008;28;20419;-80
2022/07/26 10:57:18;;;;;;;18.63;12.73;;;;;;;34.52;31.56;98863.03;5107565;27;20034;-80
2022/07/26 10:59:43;;;;;;;17.02;13.35;;;;;;;34.78;30.37;98860.03;5094214;28;20019;-81
2022/07/26 11:02:21;;;;;;;16.40;12.00;;;;;;;34.84;29.27;98848.47;5113302;28;20011;-81
2022/07/26 11:04:48;;;;;;;14.15;12.68;;;;;;;34.96;27.87;98847.19;5084010;28;20044;-81
2022/07/26 11:07:13;;;;;;;16.08;12.45;;;;;;;35.14;28.20;98840.19;5106458;27;20496;-81
2022/07/26 11:09:40;;;;;;;16.40;11.55;;;;;;;35.13;27.48;98835.69;5096944;27;20092;-81
2022/07/26 11:12:19;;;;;;;12.70;11.50;;;;;;;35.30;28.48;98834.94;5098586;27;20031;-78
2022/07/26 11:14:44;;;;;;;13.77;12.25;;;;;;;35.20;27.59;98822.78;5110152;27;20565;-80
2022/07/26 11:17:27;;;;;;;14.45;12.65;;;;;;;35.31;28.26;98815.41;5104887;28;20127;-81
2022/07/26 11:19:54;;;;;;;13.23;11.93;;;;;;;35.54;27.31;98810.47;5104878;28;20483;-81